Time;durP1;ratioP1;P1;durP2;ratioP2;P2;SDS_P1;SDS_P2;PMS_P1;PMS_P2;Temp;Humidity;BMP_temperature;BMP_pressure;BME280_temperature;BME280_humidity;BME280_pressure;Samples;Min_cycle;Max_cycle;Signal;HPM_P1;HPM_P2
2021/05/14 00:01:35;;;;;;;3.80;2.50;;;;;;;12.19;56.24;98857.05;104158;1096;78866;-63
2021/05/14 00:03:41;;;;;;;3.80;2.90;;;;;;;12.18;56.33;98856.22;104222;1095;79236;-63
2021/05/14 00:05:47;;;;;;;4.60;2.50;;;;;;;12.17;56.46;98862.68;104300;1097;79013;-66
2021/05/14 00:07:53;;;;;;;6.50;2.70;;;;;;;12.06;57.12;98860.80;104272;1097;77119;-65
2021/05/14 00:09:59;;;;;;;5.30;2.80;;;;;;;11.93;57.30;98855.64;104248;1096;78266;-63
2021/05/14 00:12:06;;;;;;;5.30;2.60;;;;;;;11.80;57.20;98861.29;104308;1093;78139;-63
2021/05/14 00:14:13;;;;;;;3.90;2.90;;;;;;;11.71;57.46;98865.39;104289;1093;78793;-63
2021/05/14 00:16:20;;;;;;;4.00;3.20;;;;;;;11.62;57.66;98864.08;104309;1093;77214;-66
2021/05/14 00:18:27;;;;;;;6.80;2.70;;;;;;;11.55;57.80;98855.23;104322;1093;78118;-65
2021/05/14 00:20:33;;;;;;;6.50;2.70;;;;;;;11.54;57.82;98856.27;104313;1093;77357;-61
2021/05/14 00:22:39;;;;;;;5.90;3.00;;;;;;;11.55;58.29;98855.23;104298;1093;79006;-61
2021/05/14 00:24:45;;;;;;;5.00;3.00;;;;;;;11.59;59.30;98853.72;104289;1097;78369;-64
2021/05/14 00:26:50;;;;;;;4.40;2.60;;;;;;;11.59;58.66;98854.52;104291;1097;80505;-65
2021/05/14 00:28:59;;;;;;;5.20;2.70;;;;;;;11.63;58.33;98855.72;104275;1097;78647;-65
2021/05/14 00:31:04;;;;;;;3.60;2.70;;;;;;;11.68;58.45;98857.70;104253;1097;79880;-63
2021/05/14 00:33:10;;;;;;;5.00;2.90;;;;;;;11.73;58.56;98865.97;104285;1094;79198;-62
2021/05/14 00:35:16;;;;;;;4.50;3.20;;;;;;;11.73;58.92;98855.15;104252;1096;77753;-62
2021/05/14 00:37:22;;;;;;;3.60;3.20;;;;;;;11.68;58.96;98858.53;104310;1094;78581;-62
2021/05/14 00:39:27;;;;;;;5.10;3.80;;;;;;;11.63;59.19;98854.88;104286;1096;78317;-63
2021/05/14 00:41:33;;;;;;;4.90;2.90;;;;;;;11.53;59.37;98851.95;104267;1094;79638;-65
2021/05/14 00:43:39;;;;;;;5.40;3.00;;;;;;;11.43;59.47;98849.80;104293;1093;78927;-65
2021/05/14 00:45:45;;;;;;;6.10;3.00;;;;;;;11.37;59.77;98847.22;104275;1097;78203;-63
2021/05/14 00:47:51;;;;;;;4.20;2.80;;;;;;;11.29;59.67;98844.84;104271;1095;78446;-63
2021/05/14 00:50:00;;;;;;;4.70;3.00;;;;;;;11.23;60.13;98844.70;104286;1097;78850;-64
2021/05/14 00:52:08;;;;;;;4.60;3.10;;;;;;;11.15;60.08;98841.53;104278;1094;79025;-63
2021/05/14 00:54:15;;;;;;;3.80;3.20;;;;;;;11.11;60.23;98845.73;104312;1094;77770;-62
2021/05/14 00:56:21;;;;;;;7.20;3.10;;;;;;;11.08;60.46;98844.31;104294;1093;78384;-66
2021/05/14 00:58:26;;;;;;;5.80;3.20;;;;;;;11.07;60.31;98852.67;104331;1093;78471;-66
2021/05/14 01:00:33;;;;;;;6.20;3.00;;;;;;;11.01;61.07;98853.58;104277;1097;77358;-66
2021/05/14 01:02:41;;;;;;;4.20;3.10;;;;;;;10.93;60.92;98854.70;104276;1096;78558;-66
2021/05/14 01:04:48;;;;;;;4.10;3.20;;;;;;;10.89;61.38;98853.53;104285;1093;77263;-66
2021/05/14 01:06:54;;;;;;;5.20;3.10;;;;;;;10.86;61.45;98845.05;104308;1093;77771;-66
2021/05/14 01:09:02;;;;;;;3.90;2.80;;;;;;;10.83;61.61;98849.03;104333;1093;78679;-66
2021/05/14 01:11:08;;;;;;;4.00;3.10;;;;;;;10.79;61.90;98845.16;104256;1096;78261;-66
2021/05/14 01:13:13;;;;;;;6.00;3.00;;;;;;;10.75;61.94;98848.52;104328;1093;78850;-66
2021/05/14 01:15:19;;;;;;;3.90;2.80;;;;;;;10.72;62.66;98851.68;104284;1093;78510;-66
2021/05/14 01:17:25;;;;;;;8.00;3.20;;;;;;;10.73;62.48;98846.06;104311;1093;78232;-66
2021/05/14 01:19:31;;;;;;;3.20;2.70;;;;;;;10.72;62.71;98844.41;104313;1093;77758;-66
2021/05/14 01:21:37;;;;;;;7.30;2.60;;;;;;;10.72;63.04;98848.98;104289;1093;78873;-65
2021/05/14 01:23:44;;;;;;;3.50;2.50;;;;;;;10.72;63.33;98848.98;104288;1093;79724;-64
2021/05/14 01:25:51;;;;;;;4.50;3.30;;;;;;;10.70;63.59;98849.22;104329;1093;76902;-66
2021/05/14 01:27:57;;;;;;;5.20;3.10;;;;;;;10.72;63.38;98857.91;104274;1093;78953;-66
2021/05/14 01:30:07;;;;;;;5.40;3.00;;;;;;;10.72;63.63;98852.51;104301;1091;78784;-67
2021/05/14 01:32:13;;;;;;;5.80;3.60;;;;;;;10.72;63.83;98854.38;104305;1093;78943;-67
2021/05/14 01:34:20;;;;;;;8.80;3.30;;;;;;;10.72;63.68;98847.11;104268;1093;78336;-67
2021/05/14 01:36:26;;;;;;;7.00;3.30;;;;;;;10.73;63.64;98851.47;104300;1093;79303;-63
2021/05/14 01:38:33;;;;;;;4.90;2.90;;;;;;;10.69;63.95;98844.86;104294;1094;77836;-63
2021/05/14 01:40:40;;;;;;;4.80;3.70;;;;;;;10.64;64.12;98845.55;104278;1095;78515;-64
2021/05/14 01:42:48;;;;;;;5.90;3.60;;;;;;;10.58;64.13;98841.05;104308;1097;77629;-64
2021/05/14 01:44:53;;;;;;;4.70;3.40;;;;;;;10.54;64.33;98845.28;104284;1094;77895;-64
2021/05/14 01:46:59;;;;;;;5.30;3.80;;;;;;;10.52;64.12;98841.16;104316;1096;78431;-64
2021/05/14 01:49:08;;;;;;;5.40;3.90;;;;;;;10.49;64.15;98850.50;104283;1095;79455;-64
2021/05/14 01:51:19;;;;;;;6.40;3.30;;;;;;;10.52;64.46;98846.56;104287;1097;78450;-66
2021/05/14 01:53:25;;;;;;;8.60;4.20;;;;;;;10.51;64.32;98848.42;104294;1097;78612;-66
2021/05/14 01:55:30;;;;;;;7.00;3.50;;;;;;;10.48;64.27;98851.58;104316;1094;78591;-66
2021/05/14 01:57:36;;;;;;;6.70;4.40;;;;;;;10.46;64.41;98856.38;104295;1097;79477;-66
2021/05/14 01:59:45;;;;;;;5.50;4.10;;;;;;;10.42;64.71;98860.58;104284;1094;77795;-66
2021/05/14 02:01:50;;;;;;;6.30;3.70;;;;;;;10.41;64.56;98861.61;104290;1097;79144;-66
2021/05/14 02:03:59;;;;;;;6.60;3.90;;;;;;;10.45;64.80;98864.69;104285;1095;79316;-66
2021/05/14 02:06:05;;;;;;;6.70;3.70;;;;;;;10.47;64.78;98863.41;104303;1097;78545;-66
2021/05/14 02:08:11;;;;;;;8.30;4.00;;;;;;;10.44;64.76;98863.03;104270;1097;79442;-66
2021/05/14 02:10:17;;;;;;;5.70;3.80;;;;;;;10.43;64.64;98864.11;104308;1097;78840;-66
2021/05/14 02:12:23;;;;;;;5.00;4.20;;;;;;;10.43;65.03;98864.11;104334;1094;77652;-66
2021/05/14 02:14:32;;;;;;;5.70;4.40;;;;;;;10.37;64.89;98860.43;104285;1094;78632;-67
2021/05/14 02:16:37;;;;;;;7.00;4.60;;;;;;;10.33;65.29;98861.91;104281;1097;78122;-67
2021/05/14 02:18:44;;;;;;;8.30;4.10;;;;;;;10.37;65.33;98855.03;104299;1097;77648;-67
2021/05/14 02:20:50;;;;;;;11.30;4.90;;;;;;;10.41;65.06;98853.52;104292;1096;77816;-64
2021/05/14 02:22:58;;;;;;;9.60;4.40;;;;;;;10.43;65.06;98853.30;104290;1097;78901;-64
2021/05/14 02:25:08;;;;;;;5.90;4.20;;;;;;;10.35;65.42;98853.61;104279;1097;77963;-67
2021/05/14 02:27:14;;;;;;;10.70;5.30;;;;;;;10.35;65.55;98859.01;104288;1097;77829;-67
2021/05/14 02:29:20;;;;;;;9.60;4.50;;;;;;;10.35;65.17;98856.31;104295;1094;78194;-68
2021/05/14 02:31:26;;;;;;;8.30;5.90;;;;;;;10.36;65.28;98857.94;104285;1093;78233;-64
2021/05/14 02:33:32;;;;;;;8.40;4.30;;;;;;;10.29;65.79;98858.03;104320;1094;78017;-64
2021/05/14 02:35:38;;;;;;;8.50;4.10;;;;;;;10.25;66.06;98853.29;104298;1096;77844;-64
2021/05/14 02:37:44;;;;;;;6.80;4.70;;;;;;;10.25;65.82;98858.69;104261;1093;78624;-63
2021/05/14 02:39:50;;;;;;;6.50;5.20;;;;;;;10.27;65.79;98856.61;104309;1093;78476;-67
2021/05/14 02:41:56;;;;;;;6.90;4.40;;;;;;;10.34;65.91;98850.08;104286;1093;78361;-68
2021/05/14 02:44:01;;;;;;;13.50;5.40;;;;;;;10.42;66.05;98857.88;104218;1093;78724;-68
2021/05/14 02:46:09;;;;;;;9.30;5.40;;;;;;;10.50;66.27;98849.47;104273;1094;77172;-68
2021/05/14 02:48:20;;;;;;;7.60;5.20;;;;;;;10.57;66.31;98860.20;104256;1096;77583;-68
2021/05/14 02:50:27;;;;;;;8.50;4.90;;;;;;;10.60;65.99;98854.34;104300;1096;77275;-68
2021/05/14 02:52:33;;;;;;;9.30;5.00;;;;;;;10.66;65.93;98858.81;104323;1096;78841;-68
2021/05/14 02:54:39;;;;;;;10.50;5.50;;;;;;;10.68;66.20;98864.00;104289;1094;78272;-65
2021/05/14 02:56:44;;;;;;;13.20;7.00;;;;;;;10.70;65.74;98856.49;104283;1096;77702;-67
2021/05/14 02:58:53;;;;;;;10.10;5.40;;;;;;;10.72;65.97;98862.48;104290;1094;79376;-67
2021/05/14 03:00:59;;;;;;;10.90;5.60;;;;;;;10.72;66.10;98859.78;104235;1096;80322;-67
2021/05/14 03:03:05;;;;;;;7.60;5.00;;;;;;;10.72;65.96;98852.51;104310;1096;77943;-66
2021/05/14 03:05:13;;;;;;;11.60;5.50;;;;;;;10.65;66.30;98860.72;104253;1096;78617;-63
2021/05/14 03:07:20;;;;;;;10.40;5.60;;;;;;;10.64;65.99;98861.75;104259;1096;80014;-63
2021/05/14 03:09:25;;;;;;;8.50;4.80;;;;;;;10.65;66.06;98860.72;104299;1096;77356;-63
2021/05/14 03:11:31;;;;;;;9.40;4.90;;;;;;;10.65;66.67;98862.59;104308;1097;79223;-63
2021/05/14 03:13:37;;;;;;;8.70;5.00;;;;;;;10.66;66.78;98861.52;104318;1091;79650;-63
2021/05/14 03:15:43;;;;;;;7.40;5.00;;;;;;;10.67;66.76;98860.47;104282;1096;77554;-66
2021/05/14 03:17:49;;;;;;;6.30;4.70;;;;;;;10.69;66.76;98858.36;104292;1097;77273;-66
2021/05/14 03:19:54;;;;;;;9.80;4.70;;;;;;;10.68;67.04;98852.13;104306;1094;78516;-63
2021/05/14 03:22:00;;;;;;;6.80;4.10;;;;;;;10.71;67.12;98856.28;104285;1097;79158;-62
2021/05/14 03:24:08;;;;;;;5.90;4.70;;;;;;;10.79;66.98;98852.44;104275;1094;78628;-63
2021/05/14 03:26:15;;;;;;;8.20;4.70;;;;;;;10.94;67.27;98848.25;104343;1093;78625;-63
2021/05/14 03:28:21;;;;;;;8.90;5.70;;;;;;;11.06;67.09;98854.54;104289;1097;77933;-63
2021/05/14 03:30:27;;;;;;;6.80;4.50;;;;;;;11.18;66.94;98851.84;104321;1093;77261;-67
2021/05/14 03:32:35;;;;;;;11.80;5.00;;;;;;;11.31;67.15;98853.55;104287;1093;79886;-66
2021/05/14 03:34:40;;;;;;;6.90;4.80;;;;;;;11.42;66.82;98858.16;104300;1097;78246;-65
2021/05/14 03:36:46;;;;;;;8.40;5.00;;;;;;;11.55;66.67;98864.17;104298;1093;79949;-66
2021/05/14 03:38:52;;;;;;;6.90;4.60;;;;;;;11.87;66.78;98870.10;104291;1097;78410;-66
2021/05/14 03:41:00;;;;;;;7.00;4.70;;;;;;;12.71;66.72;98866.83;104323;1093;76921;-63
2021/05/14 03:43:06;;;;;;;7.20;4.50;;;;;;;13.54;66.17;98864.33;104335;1094;78294;-63
2021/05/14 03:45:15;;;;;;;7.60;4.30;;;;;;;14.38;65.16;98862.39;104301;1093;78745;-63
2021/05/14 03:47:23;;;;;;;5.80;4.20;;;;;;;14.78;63.57;98863.99;104308;1097;76980;-63
2021/05/14 03:49:29;;;;;;;6.10;4.60;;;;;;;14.98;63.07;98865.03;104280;1093;78437;-63
2021/05/14 03:51:38;;;;;;;5.50;4.00;;;;;;;15.15;62.52;98864.95;104293;1097;78148;-62
2021/05/14 03:53:44;;;;;;;5.50;4.60;;;;;;;15.12;61.99;98860.84;104317;1093;78595;-62
2021/05/14 03:55:51;;;;;;;8.80;4.80;;;;;;;15.24;61.17;98866.14;104287;1093;79883;-63
2021/05/14 03:57:56;;;;;;;6.90;4.10;;;;;;;15.12;60.87;98860.02;104323;1097;77069;-63
2021/05/14 04:00:03;;;;;;;6.60;4.70;;;;;;;15.20;60.59;98867.71;104308;1093;78971;-66
2021/05/14 04:02:12;;;;;;;7.40;4.10;;;;;;;15.12;60.35;98862.73;104316;1093;77480;-67
2021/05/14 04:04:20;;;;;;;9.30;4.60;;;;;;;14.98;60.56;98861.48;104298;1097;77843;-67
2021/05/14 04:06:27;;;;;;;6.90;4.40;;;;;;;14.97;60.38;98868.02;104309;1093;79058;-66
2021/05/14 04:08:33;;;;;;;7.80;4.30;;;;;;;14.85;60.12;98861.89;104307;1093;78771;-66
2021/05/14 04:10:51;;;;;;;6.60;4.80;;;;;;;14.65;60.15;98865.17;104315;1093;80085;-66
2021/05/14 04:15:19;;;;;;;6.10;4.30;;;;;;;14.41;60.57;98867.33;103957;1096;78303;-63
2021/05/14 04:17:24;;;;;;;8.70;4.40;;;;;;;14.38;60.70;98864.28;104317;1093;79013;-63
2021/05/14 04:19:31;;;;;;;8.20;4.70;;;;;;;14.40;60.63;98862.95;104256;1093;78737;-63
2021/05/14 04:21:37;;;;;;;6.30;4.20;;;;;;;14.34;60.84;98869.39;104308;1096;79085;-65
2021/05/14 04:23:43;;;;;;;7.20;4.40;;;;;;;14.25;60.90;98872.77;104308;1093;78371;-66
2021/05/14 04:25:49;;;;;;;6.10;4.60;;;;;;;14.15;61.06;98868.00;104294;1093;78830;-63
2021/05/14 04:27:55;;;;;;;6.70;4.50;;;;;;;14.11;60.86;98872.30;104299;1094;77305;-63
2021/05/14 04:30:01;;;;;;;7.10;4.60;;;;;;;14.06;61.21;98869.52;104314;1093;77763;-65
2021/05/14 04:32:07;;;;;;;7.70;4.60;;;;;;;14.10;61.12;98874.19;104316;1093;78062;-67
2021/05/14 04:34:14;;;;;;;5.60;5.00;;;;;;;14.17;61.21;98882.17;104314;1097;78629;-67
2021/05/14 04:36:20;;;;;;;6.20;4.90;;;;;;;14.11;61.21;98883.98;104277;1093;77337;-63
2021/05/14 04:38:26;;;;;;;6.20;5.00;;;;;;;14.11;61.27;98880.45;104260;1097;79660;-63
2021/05/14 04:40:31;;;;;;;7.20;5.50;;;;;;;14.10;61.34;98881.50;104259;1094;79101;-67
2021/05/14 04:42:40;;;;;;;5.90;4.70;;;;;;;14.04;61.40;98880.61;104304;1095;77889;-67
2021/05/14 04:44:48;;;;;;;7.60;4.80;;;;;;;14.02;61.44;98876.50;104310;1096;77079;-65
2021/05/14 04:46:55;;;;;;;10.00;5.40;;;;;;;13.96;61.47;98878.31;104300;1097;77997;-66
2021/05/14 04:49:01;;;;;;;6.50;5.20;;;;;;;13.95;61.88;98879.37;104306;1093;79410;-65
2021/05/14 04:51:10;;;;;;;7.00;5.40;;;;;;;13.97;61.93;98888.11;104313;1095;79682;-66
2021/05/14 04:53:17;;;;;;;6.10;4.90;;;;;;;13.97;62.19;98879.14;104287;1097;77360;-66
2021/05/14 04:55:23;;;;;;;6.70;5.70;;;;;;;14.09;62.06;98885.31;104302;1097;77607;-66
2021/05/14 04:57:28;;;;;;;5.80;5.10;;;;;;;14.16;61.89;98883.23;104325;1094;77696;-66
2021/05/14 04:59:38;;;;;;;7.60;5.20;;;;;;;14.16;62.21;98891.38;104294;1096;77158;-68
2021/05/14 05:01:44;;;;;;;7.30;5.30;;;;;;;14.16;61.90;98889.48;104266;1093;77372;-67
2021/05/14 05:03:55;;;;;;;7.30;4.90;;;;;;;14.24;61.72;98882.80;104261;1097;79505;-67
2021/05/14 05:06:03;;;;;;;7.10;5.00;;;;;;;14.31;61.86;98897.02;104303;1097;77747;-64
2021/05/14 05:08:09;;;;;;;5.90;5.00;;;;;;;14.32;62.04;98895.98;104304;1097;78315;-64
2021/05/14 05:10:16;;;;;;;8.00;5.80;;;;;;;14.34;62.04;98891.12;104300;1097;79347;-64
2021/05/14 05:12:23;;;;;;;6.50;5.30;;;;;;;14.41;62.29;98899.93;104303;1095;78666;-64
2021/05/14 05:14:28;;;;;;;14.10;6.70;;;;;;;14.56;62.28;98894.69;104306;1093;78963;-65
2021/05/14 05:16:34;;;;;;;11.20;6.50;;;;;;;14.72;61.82;98893.80;104296;1095;79682;-65
2021/05/14 05:18:39;;;;;;;10.60;6.90;;;;;;;14.86;61.88;98896.17;104297;1093;78283;-66
2021/05/14 05:20:45;;;;;;;10.40;7.00;;;;;;;14.96;61.94;98890.84;104308;1094;78362;-64
2021/05/14 05:22:51;;;;;;;11.00;6.80;;;;;;;15.08;61.54;98894.26;104268;1093;77763;-64
2021/05/14 05:24:56;;;;;;;7.50;6.30;;;;;;;15.22;61.59;98893.58;104319;1097;78329;-67
2021/05/14 05:27:07;;;;;;;9.80;6.70;;;;;;;15.28;61.67;98891.73;104283;1097;78332;-67
2021/05/14 05:29:13;;;;;;;9.60;6.50;;;;;;;15.40;61.57;98894.31;104299;1091;78006;-67
2021/05/14 05:31:18;;;;;;;9.00;6.20;;;;;;;15.54;61.44;98895.58;104321;1096;78414;-66
2021/05/14 05:33:25;;;;;;;7.50;5.40;;;;;;;15.71;61.46;98896.28;104316;1093;78141;-67
2021/05/14 05:35:30;;;;;;;10.70;5.40;;;;;;;15.94;61.29;98898.64;104286;1097;78934;-67
2021/05/14 05:37:36;;;;;;;7.30;5.10;;;;;;;16.14;60.80;98900.70;104295;1096;77220;-67
2021/05/14 05:39:45;;;;;;;7.90;5.40;;;;;;;16.33;60.59;98900.02;104301;1096;79277;-66
2021/05/14 05:41:50;;;;;;;11.50;5.40;;;;;;;16.51;60.42;98898.74;104311;1097;78305;-65
2021/05/14 05:43:59;;;;;;;8.30;5.20;;;;;;;16.82;60.15;98903.31;104280;1097;78394;-66
2021/05/14 05:46:05;;;;;;;9.00;5.00;;;;;;;17.46;60.14;98898.34;104286;1097;79046;-63
2021/05/14 05:48:11;;;;;;;6.60;4.70;;;;;;;18.57;58.76;98897.54;104293;1096;78984;-63
2021/05/14 05:50:16;;;;;;;5.40;4.50;;;;;;;18.99;57.41;98900.66;104304;1093;78846;-66
2021/05/14 05:52:22;;;;;;;9.60;4.90;;;;;;;19.45;57.09;98900.47;104300;1096;77474;-67
2021/05/14 05:54:28;;;;;;;5.80;4.50;;;;;;;20.78;55.13;98900.67;104309;1091;79038;-67
2021/05/14 05:56:34;;;;;;;5.20;4.40;;;;;;;22.10;53.70;98905.17;104270;1097;79817;-63
2021/05/14 05:58:40;;;;;;;6.60;4.70;;;;;;;21.93;51.62;98904.90;104300;1096;77432;-64
2021/05/14 06:00:47;;;;;;;9.00;4.90;;;;;;;21.28;51.31;98903.92;104254;1095;79554;-67
2021/05/14 06:02:53;;;;;;;10.00;5.10;;;;;;;20.70;50.97;98905.98;104312;1095;79038;-68
2021/05/14 06:04:59;;;;;;;9.90;5.10;;;;;;;20.18;51.57;98907.57;104292;1096;77533;-65
2021/05/14 06:07:05;;;;;;;7.80;5.80;;;;;;;19.84;51.86;98902.09;104285;1096;79037;-65
2021/05/14 06:09:11;;;;;;;10.00;5.30;;;;;;;19.58;52.30;98902.56;104313;1097;78517;-64
2021/05/14 06:11:17;;;;;;;7.70;5.00;;;;;;;19.34;52.55;98900.47;104299;1093;78421;-66
2021/05/14 06:13:24;;;;;;;9.70;5.20;;;;;;;19.26;52.59;98903.80;104280;1093;78242;-66
2021/05/14 06:15:30;;;;;;;7.40;4.80;;;;;;;19.28;52.79;98895.33;104257;1094;77844;-65
2021/05/14 06:17:39;;;;;;;12.80;5.90;;;;;;;19.30;52.65;98902.16;104284;1097;77583;-62
2021/05/14 06:19:48;;;;;;;6.30;4.60;;;;;;;19.20;52.89;98899.45;104290;1097;77159;-66
2021/05/14 06:21:55;;;;;;;10.00;5.10;;;;;;;19.48;53.02;98902.61;104289;1097;78218;-68
2021/05/14 06:24:01;;;;;;;9.10;4.90;;;;;;;20.58;52.66;98900.88;104310;1095;77709;-66
2021/05/14 06:26:07;;;;;;;9.20;5.00;;;;;;;22.40;50.89;98892.81;104331;1095;78404;-63
2021/05/14 06:28:21;;;;;;;9.10;4.70;;;;;;;23.64;48.92;98896.08;104292;1095;78471;-63
2021/05/14 06:30:27;;;;;;;6.10;4.30;;;;;;;24.46;47.07;98902.05;104306;1094;78824;-65
2021/05/14 06:32:33;;;;;;;6.30;4.30;;;;;;;25.43;45.67;98897.38;104307;1093;77833;-64
2021/05/14 06:34:43;;;;;;;6.50;4.20;;;;;;;26.69;43.84;98891.28;104317;1096;79922;-64
2021/05/14 06:36:52;;;;;;;8.70;4.90;;;;;;;27.80;41.94;98894.61;104269;1093;78972;-63
2021/05/14 06:38:58;;;;;;;6.80;4.70;;;;;;;28.79;40.43;98895.45;104268;1095;79075;-64
2021/05/14 06:41:04;;;;;;;6.30;5.10;;;;;;;29.40;38.48;98899.05;104310;1093;77584;-64
2021/05/14 06:43:10;;;;;;;7.40;4.90;;;;;;;29.76;37.83;98897.02;104291;1093;78377;-64
2021/05/14 06:45:17;;;;;;;7.80;4.60;;;;;;;30.32;37.03;98892.31;104227;1095;79890;-64
2021/05/14 06:47:23;;;;;;;6.60;5.10;;;;;;;30.98;36.24;98893.69;104294;1093;77185;-64
2021/05/14 06:49:29;;;;;;;6.80;5.00;;;;;;;31.44;34.34;98890.02;104287;1093;78351;-65
2021/05/14 06:51:37;;;;;;;4.90;4.40;;;;;;;30.96;34.08;98885.66;104257;1096;78452;-67
2021/05/14 06:53:42;;;;;;;5.30;4.10;;;;;;;29.95;33.67;98901.16;104285;1097;77832;-67
2021/05/14 06:55:48;;;;;;;6.20;4.00;;;;;;;29.39;34.10;98895.48;104265;1094;78676;-65
2021/05/14 06:57:54;;;;;;;5.90;5.10;;;;;;;28.98;34.76;98892.92;104302;1092;79046;-65
2021/05/14 07:00:04;;;;;;;5.20;4.40;;;;;;;28.07;35.08;98891.30;104268;1097;79544;-67
2021/05/14 07:02:11;;;;;;;6.70;4.60;;;;;;;27.40;35.67;98896.97;104276;1093;79456;-67
2021/05/14 07:04:24;;;;;;;9.30;4.30;;;;;;;26.85;35.97;98892.39;104293;1097;78319;-67
2021/05/14 07:06:32;;;;;;;6.40;4.20;;;;;;;26.34;36.79;98907.17;104294;1093;79902;-65
2021/05/14 07:08:38;;;;;;;6.70;4.10;;;;;;;26.15;37.86;98903.95;104255;1094;78192;-65
2021/05/14 07:10:44;;;;;;;6.50;4.00;;;;;;;27.69;37.93;98908.05;104294;1093;80526;-65
2021/05/14 07:12:50;;;;;;;3.80;3.30;;;;;;;29.48;35.35;98904.49;104300;1091;79893;-65
2021/05/14 07:14:55;;;;;;;7.40;4.00;;;;;;;30.26;34.45;98904.88;104287;1095;78444;-64
2021/05/14 07:17:02;;;;;;;5.70;3.80;;;;;;;30.24;33.74;98907.19;104289;1093;79147;-65
2021/05/14 07:19:09;;;;;;;4.10;3.70;;;;;;;30.65;32.42;98905.16;104332;1096;78126;-65
2021/05/14 07:21:15;;;;;;;6.00;4.30;;;;;;;30.82;31.83;98905.61;104281;1093;78918;-67
2021/05/14 07:23:22;;;;;;;5.60;4.40;;;;;;;30.98;30.56;98902.05;104296;1097;78144;-66
2021/05/14 07:25:28;;;;;;;5.30;3.70;;;;;;;30.78;31.05;98906.70;104275;1093;78459;-67
2021/05/14 07:27:34;;;;;;;5.00;4.10;;;;;;;30.65;31.03;98911.55;104295;1095;79581;-66
2021/05/14 07:29:43;;;;;;;5.90;4.20;;;;;;;30.88;30.86;98915.33;104308;1093;77324;-66
2021/05/14 07:31:49;;;;;;;6.80;4.10;;;;;;;31.02;30.61;98908.52;104301;1097;79095;-64
2021/05/14 07:33:54;;;;;;;6.20;3.80;;;;;;;32.00;30.29;98913.66;104268;1093;77880;-62
2021/05/14 07:36:04;;;;;;;5.10;3.50;;;;;;;32.65;29.38;98905.41;104286;1093;79013;-64
2021/05/14 07:38:11;;;;;;;6.00;3.90;;;;;;;33.09;29.11;98915.02;104292;1094;78299;-64
2021/05/14 07:40:17;;;;;;;5.90;3.40;;;;;;;33.19;28.60;98905.16;104279;1094;77665;-65
2021/05/14 07:42:22;;;;;;;6.50;3.30;;;;;;;33.23;28.01;98904.05;104280;1096;77000;-67
2021/05/14 07:44:28;;;;;;;5.60;3.30;;;;;;;33.82;26.95;98910.94;104314;1097;79148;-65
2021/05/14 07:46:34;;;;;;;6.00;3.10;;;;;;;33.97;27.08;98915.55;104302;1096;78151;-67
2021/05/14 07:48:44;;;;;;;5.30;3.30;;;;;;;33.59;26.42;98918.63;104292;1093;78402;-63
2021/05/14 07:50:51;;;;;;;7.50;3.50;;;;;;;32.62;26.62;98920.94;104298;1094;78248;-64
2021/05/14 07:52:57;;;;;;;5.50;3.50;;;;;;;31.67;26.88;98918.91;104280;1096;79008;-64
2021/05/14 07:55:08;;;;;;;5.50;3.60;;;;;;;30.92;27.97;98919.06;104296;1093;77985;-66
2021/05/14 08:21:44;;;;;;;5.30;3.60;;;;;;;29.41;29.55;98936.86;103297;1100;77978;-65
2021/05/14 08:23:54;;;;;;;3.90;3.10;;;;;;;29.14;29.69;98935.56;104576;1093;78276;-65
2021/05/14 08:26:00;;;;;;;4.70;3.00;;;;;;;29.47;29.56;98935.47;104415;1093;80202;-65
2021/05/14 08:28:06;;;;;;;6.10;3.30;;;;;;;29.81;29.94;98938.56;104459;1093;78337;-64
2021/05/14 08:30:17;;;;;;;3.30;2.90;;;;;;;29.83;29.33;98937.41;104285;1093;78769;-67
2021/05/14 08:32:25;;;;;;;3.60;2.90;;;;;;;30.33;29.03;98940.47;104254;1094;78379;-70
2021/05/14 08:34:31;;;;;;;5.60;3.10;;;;;;;30.37;28.19;98935.86;104309;1095;78817;-71
2021/05/14 08:36:37;;;;;;;3.80;2.90;;;;;;;30.52;28.57;98929.49;104301;1096;78716;-75
2021/05/14 08:38:43;;;;;;;6.80;3.50;;;;;;;31.13;27.97;98931.91;104283;1095;77761;-67
2021/05/14 08:40:49;;;;;;;5.30;3.20;;;;;;;31.58;26.74;98925.86;104298;1093;78271;-67
2021/05/14 08:42:58;;;;;;;5.60;2.80;;;;;;;31.42;27.11;98929.48;104284;1096;78596;-69
2021/05/14 08:45:12;;;;;;;3.90;2.30;;;;;;;31.40;25.78;98937.38;104288;1094;78353;-68
2021/05/14 08:47:25;;;;;;;5.60;2.20;;;;;;;31.58;24.83;98940.64;104530;1093;76807;-77
2021/05/14 08:49:47;;;;;;;3.90;2.10;;;;;;;32.17;25.40;98937.56;104862;1093;79244;-70
2021/05/14 08:52:05;;;;;;;5.00;2.50;;;;;;;31.90;25.07;98932.97;104616;1093;77453;-77
2021/05/14 08:54:29;;;;;;;4.70;2.40;;;;;;;31.83;24.99;98939.22;104584;1093;77209;-80
2021/05/14 08:56:39;;;;;;;5.80;3.10;;;;;;;31.45;25.18;98936.31;104317;1097;76906;-77
2021/05/14 08:58:45;;;;;;;2.40;2.20;;;;;;;31.23;25.48;98942.55;104233;1097;79249;-68
2021/05/14 09:00:51;;;;;;;4.50;2.40;;;;;;;31.45;25.07;98939.89;104280;1096;79045;-67
2021/05/14 09:03:00;;;;;;;2.70;1.90;;;;;;;30.82;25.42;98944.65;104248;1094;77982;-67
2021/05/14 09:05:28;;;;;;;3.70;2.20;;;;;;;30.94;25.57;98950.19;104297;1096;78619;-67
2021/05/14 09:07:45;;;;;;;4.20;2.40;;;;;;;31.24;25.90;98941.36;104308;1096;78380;-76
2021/05/14 09:10:11;;;;;;;3.40;2.20;;;;;;;31.70;26.24;98942.51;104267;1095;79597;-77
2021/05/14 09:12:34;;;;;;;4.70;2.20;;;;;;;31.68;25.88;98942.04;104301;1097;78735;-76
2021/05/14 09:14:42;;;;;;;4.70;2.90;;;;;;;30.50;25.49;98958.89;104300;1094;77021;-74
2021/05/14 09:16:51;;;;;;;4.20;2.50;;;;;;;29.49;25.97;98953.44;104316;1096;78337;-74
2021/05/14 09:18:56;;;;;;;3.10;2.40;;;;;;;28.95;26.71;98949.22;104227;1094;77844;-72
2021/05/14 09:21:03;;;;;;;4.00;2.50;;;;;;;28.85;27.53;98947.69;104294;1096;78503;-71
2021/05/14 09:23:32;;;;;;;4.70;2.50;;;;;;;28.34;28.34;98948.21;104280;1096;78925;-67
2021/05/14 09:25:50;;;;;;;4.30;2.60;;;;;;;27.75;29.46;98956.66;104284;1096;77302;-68
2021/05/14 09:27:59;;;;;;;3.70;2.70;;;;;;;26.92;29.70;98950.05;104350;1096;77718;-67
2021/05/14 09:30:09;;;;;;;3.60;2.20;;;;;;;26.24;30.97;98962.90;104437;1093;77881;-67
2021/05/14 09:32:23;;;;;;;4.70;2.90;;;;;;;25.68;31.88;98966.58;104294;1093;78743;-67
2021/05/14 09:34:34;;;;;;;4.00;2.60;;;;;;;25.59;32.35;98963.00;104309;1095;78561;-65
2021/05/14 09:36:40;;;;;;;4.40;2.80;;;;;;;26.01;32.71;98966.14;104300;1093;77428;-68
2021/05/14 09:38:52;;;;;;;5.00;2.60;;;;;;;26.28;33.21;98960.30;104270;1096;78561;-66
2021/05/14 09:41:03;;;;;;;4.80;2.70;;;;;;;26.45;32.94;98963.05;104290;1096;79942;-66
2021/05/14 09:43:09;;;;;;;5.00;3.10;;;;;;;26.69;33.28;98956.96;104313;1096;77471;-66
2021/05/14 09:45:26;;;;;;;4.20;3.10;;;;;;;26.98;32.51;98957.05;104266;1096;78775;-66
2021/05/14 09:47:38;;;;;;;6.70;3.30;;;;;;;26.98;31.84;98957.05;104335;1096;79445;-67
2021/05/14 09:49:43;;;;;;;7.60;2.80;;;;;;;27.17;32.08;98956.64;104346;1096;78947;-78
2021/05/14 09:51:51;;;;;;;3.90;2.80;;;;;;;27.56;32.42;98956.30;104298;1095;78798;-75
2021/05/14 09:54:17;;;;;;;3.70;2.50;;;;;;;27.90;30.62;98956.08;104279;1096;78340;-76
2021/05/14 09:56:33;;;;;;;3.70;2.30;;;;;;;27.48;30.98;98957.98;104262;1096;79459;-64
2021/05/14 09:58:39;;;;;;;22.40;3.90;;;;;;;27.28;32.02;98953.16;104250;1096;77468;-65
2021/05/14 10:00:45;;;;;;;5.60;2.50;;;;;;;26.97;31.75;98960.98;104262;1096;78992;-77
2021/05/14 10:02:51;;;;;;;5.00;2.80;;;;;;;27.18;32.10;98953.55;104300;1096;77433;-77
2021/05/14 10:22:11;;;;;;;5.60;2.60;;;;;;;26.37;31.77;98964.67;103301;1097;77570;-65
2021/05/14 10:28:50;;;;;;;8.10;2.60;;;;;;;25.62;33.04;98965.13;103318;1097;78944;-74
2021/05/14 10:43:12;;;;;;;4.80;3.00;;;;;;;23.90;35.30;98959.71;104521;1096;77320;-68
2021/05/14 11:00:40;;;;;;;4.90;2.70;;;;;;;23.29;37.46;98961.02;103231;1103;80270;-66
2021/05/14 11:03:06;;;;;;;3.20;2.70;;;;;;;23.20;37.95;98959.30;103269;1100;77772;-64
2021/05/14 11:05:28;;;;;;;9.70;2.90;;;;;;;23.18;37.85;98970.65;103228;1100;77968;-65
2021/05/14 11:07:41;;;;;;;4.80;2.70;;;;;;;23.02;37.75;98974.01;103229;1100;79222;-66
2021/05/14 11:10:58;;;;;;;7.10;3.00;;;;;;;22.90;38.74;98971.75;103214;1101;78169;-66